createdAt,value
2019-03-23T00:00:26.293Z,7.60
2019-03-23T00:02:55.837Z,8.70
2019-03-23T00:05:25.292Z,8.83
2019-03-23T00:07:54.693Z,8.07
2019-03-23T00:10:24.241Z,7.70
2019-03-23T00:12:53.709Z,8.27
2019-03-23T00:15:23.256Z,8.63
2019-03-23T00:17:52.734Z,7.90
2019-03-23T00:20:22.185Z,8.33
2019-03-23T00:22:51.983Z,8.43
2019-03-23T00:25:21.446Z,7.70
2019-03-23T00:27:50.902Z,8.53
2019-03-23T00:30:20.441Z,7.73
2019-03-23T00:32:49.907Z,8.17
2019-03-23T00:35:19.780Z,8.37
2019-03-23T00:37:49.786Z,7.33
2019-03-23T00:40:19.337Z,8.73
2019-03-23T00:42:48.914Z,6.47
2019-03-23T00:45:18.811Z,9.30
2019-03-23T00:47:48.349Z,8.77
2019-03-23T00:50:17.821Z,8.67
2019-03-23T00:52:47.293Z,8.00
2019-03-23T00:55:16.761Z,9.43
2019-03-23T00:57:46.228Z,8.43
2019-03-23T01:00:16.894Z,8.40
2019-03-23T01:02:46.425Z,9.60
2019-03-23T01:05:16.063Z,8.33
2019-03-23T01:07:46.222Z,7.83
2019-03-23T01:10:15.778Z,9.37
2019-03-23T01:12:45.385Z,8.90
2019-03-23T01:15:15.190Z,9.90
2019-03-23T01:17:44.634Z,9.53
2019-03-23T01:20:14.513Z,8.93
2019-03-23T01:22:43.984Z,9.87
2019-03-23T01:25:13.625Z,9.30
2019-03-23T01:27:43.083Z,9.40
2019-03-23T01:30:13.049Z,8.60
2019-03-23T01:32:42.499Z,10.83
2019-03-23T01:35:12.393Z,8.27
2019-03-23T01:37:41.967Z,11.10
2019-03-23T01:40:11.681Z,9.80
2019-03-23T01:42:41.068Z,9.60
2019-03-23T01:45:11.426Z,10.23
2019-03-23T01:47:40.964Z,10.87
2019-03-23T01:50:11.038Z,9.43
2019-03-23T01:52:40.529Z,10.50
2019-03-23T01:55:10.081Z,11.30
2019-03-23T01:57:39.609Z,9.40
2019-03-23T02:00:09.679Z,9.90
2019-03-23T02:02:39.326Z,8.40
2019-03-23T02:05:09.577Z,10.17
2019-03-23T02:07:39.095Z,9.60
2019-03-23T02:10:09.046Z,10.30
2019-03-23T02:12:38.569Z,12.97
2019-03-23T02:15:09.504Z,10.43
2019-03-23T02:17:39.086Z,10.87
2019-03-23T02:20:08.887Z,9.60
2019-03-23T02:22:38.521Z,9.43
2019-03-23T02:25:08.857Z,9.40
2019-03-23T02:27:38.385Z,10.17
2019-03-23T02:30:08.770Z,10.10
2019-03-23T02:32:38.304Z,9.07
2019-03-23T02:35:08.840Z,9.37
2019-03-23T02:37:38.376Z,9.60
2019-03-23T02:40:08.548Z,10.20
2019-03-23T02:42:37.994Z,9.00
2019-03-23T02:45:08.303Z,9.60
2019-03-23T02:47:37.826Z,10.47
2019-03-23T02:50:08.391Z,10.17
2019-03-23T02:52:37.973Z,9.27
2019-03-23T02:55:08.954Z,9.10
2019-03-23T02:57:38.400Z,9.60
2019-03-23T03:00:08.567Z,9.83
2019-03-23T03:02:38.082Z,9.33
2019-03-23T03:05:09.226Z,9.23
2019-03-23T03:07:42.616Z,9.00
2019-03-23T03:10:10.828Z,8.90
2019-03-23T03:12:40.276Z,8.93
2019-03-23T03:15:10.145Z,10.57
2019-03-23T03:17:39.600Z,9.70
2019-03-23T03:20:11.129Z,9.07
2019-03-23T03:22:40.594Z,8.50
2019-03-23T03:25:10.089Z,8.87
2019-03-23T03:27:39.525Z,9.43
2019-03-23T03:30:11.240Z,8.53
2019-03-23T03:32:40.826Z,8.30
2019-03-23T03:35:10.531Z,9.50
2019-03-23T03:37:39.910Z,10.27
2019-03-23T03:40:09.684Z,10.23
2019-03-23T03:42:39.127Z,9.90
2019-03-23T03:45:09.227Z,8.97
2019-03-23T03:47:41.226Z,9.03
2019-03-23T03:50:11.030Z,9.10
2019-03-23T03:52:40.943Z,9.60
2019-03-23T03:55:10.478Z,10.27
2019-03-23T03:57:39.935Z,9.57
2019-03-23T04:00:10.090Z,9.17
2019-03-23T04:02:39.621Z,9.90
2019-03-23T04:05:09.253Z,9.63
2019-03-23T04:07:38.709Z,10.00
2019-03-23T04:10:08.401Z,9.50
2019-03-23T04:12:37.797Z,9.50
2019-03-23T04:15:07.931Z,9.20
2019-03-23T04:17:37.309Z,9.23
2019-03-23T04:20:07.378Z,10.17
2019-03-23T04:22:36.994Z,10.23
2019-03-23T04:25:06.929Z,10.73
2019-03-23T04:27:36.383Z,10.77
2019-03-23T04:30:06.731Z,10.57
2019-03-23T04:32:36.119Z,10.60
2019-03-23T04:35:06.328Z,11.03
2019-03-23T04:37:35.744Z,10.80
2019-03-23T04:40:05.565Z,11.70
2019-03-23T04:42:35.434Z,10.77
2019-03-23T04:45:05.574Z,10.60
2019-03-23T04:47:35.252Z,11.00
2019-03-23T04:50:05.433Z,9.77
2019-03-23T04:52:34.897Z,10.47
2019-03-23T04:55:05.510Z,11.30
2019-03-23T04:57:34.961Z,11.40
2019-03-23T05:00:05.210Z,10.77
2019-03-23T05:02:34.680Z,10.30
2019-03-23T05:05:04.473Z,12.00
2019-03-23T05:07:33.873Z,10.90
2019-03-23T05:10:03.715Z,11.30
2019-03-23T05:12:34.310Z,11.47
2019-03-23T05:15:04.518Z,11.83
2019-03-23T05:17:33.976Z,11.70
2019-03-23T05:20:03.939Z,11.83
2019-03-23T05:22:33.487Z,12.50
2019-03-23T05:25:03.012Z,10.50
2019-03-23T05:27:32.506Z,11.60
2019-03-23T05:30:02.174Z,10.80
2019-03-23T05:32:31.630Z,11.83
2019-03-23T05:35:01.096Z,11.80
2019-03-23T05:37:30.514Z,11.47
2019-03-23T05:39:59.965Z,12.30
2019-03-23T05:42:29.343Z,11.07
2019-03-23T05:44:58.810Z,14.00
2019-03-23T05:47:28.186Z,11.97
2019-03-23T05:49:57.646Z,12.67
2019-03-23T05:52:27.122Z,10.90
2019-03-23T05:54:56.502Z,12.13
2019-03-23T05:57:25.885Z,11.93
2019-03-23T05:59:55.345Z,11.77
2019-03-23T06:02:24.951Z,11.60
2019-03-23T06:04:54.414Z,10.53
2019-03-23T06:07:23.969Z,11.97
2019-03-23T06:09:53.341Z,12.13
2019-03-23T06:12:22.771Z,12.00
2019-03-23T06:14:52.562Z,12.07
2019-03-23T06:17:22.087Z,12.90
2019-03-23T06:19:51.466Z,11.60
2019-03-23T06:22:20.867Z,12.70
2019-03-23T06:24:50.715Z,11.33
2019-03-23T06:27:20.093Z,10.80
2019-03-23T06:29:49.893Z,11.73
2019-03-23T06:32:20.762Z,13.30
2019-03-23T06:34:50.302Z,12.20
2019-03-23T06:37:19.813Z,11.70
2019-03-23T06:39:49.297Z,34.03
2019-03-23T06:42:18.748Z,19.60
2019-03-23T06:44:48.214Z,13.57
2019-03-23T06:47:17.737Z,11.17
2019-03-23T06:49:47.121Z,11.33
2019-03-23T06:52:16.679Z,11.47
2019-03-23T06:54:46.141Z,10.80
2019-03-23T06:57:15.529Z,10.30
2019-03-23T06:59:44.922Z,13.53
2019-03-23T07:02:14.752Z,11.90
2019-03-23T07:04:44.202Z,9.57
2019-03-23T07:07:13.697Z,11.43
2019-03-23T07:09:43.206Z,9.23
2019-03-23T07:12:12.820Z,9.67
2019-03-23T07:14:42.281Z,10.03
2019-03-23T07:17:11.866Z,10.23
2019-03-23T07:19:41.259Z,8.90
2019-03-23T07:22:10.733Z,10.03
2019-03-23T07:24:40.134Z,9.57
2019-03-23T07:27:09.522Z,9.80
2019-03-23T07:29:39.010Z,10.60
2019-03-23T07:32:08.465Z,10.80
2019-03-23T07:34:37.865Z,11.13
2019-03-23T07:37:07.383Z,11.40
2019-03-23T07:39:36.846Z,10.40
2019-03-23T07:42:06.398Z,10.67
2019-03-23T07:44:35.802Z,10.00
2019-03-23T07:47:05.343Z,11.27
2019-03-23T07:49:34.815Z,12.80
2019-03-23T07:52:04.422Z,11.70
2019-03-23T07:54:33.891Z,11.27
2019-03-23T07:57:03.381Z,11.57
2019-03-23T07:59:32.865Z,12.70
2019-03-23T08:02:02.414Z,13.07
2019-03-23T08:04:32.153Z,11.83
2019-03-23T08:07:01.888Z,12.30
2019-03-23T08:09:37.577Z,12.10
2019-03-23T08:12:02.558Z,9.70
2019-03-23T08:14:32.059Z,11.90
2019-03-23T08:17:01.597Z,11.87
2019-03-23T08:19:31.005Z,11.83
2019-03-23T08:22:00.425Z,12.17
2019-03-23T08:24:29.841Z,12.27
2019-03-23T08:26:59.290Z,13.40
2019-03-23T08:29:28.701Z,14.53
2019-03-23T08:31:58.515Z,19.10
2019-03-23T08:34:28.051Z,16.47
2019-03-23T08:36:57.946Z,20.43
2019-03-23T08:39:27.727Z,20.40
2019-03-23T08:41:57.198Z,19.07
2019-03-23T08:44:26.690Z,19.90
2019-03-23T08:46:56.086Z,17.90
2019-03-23T08:49:25.490Z,21.07
2019-03-23T08:51:54.899Z,22.43
2019-03-23T08:54:24.294Z,24.87
2019-03-23T08:56:54.105Z,22.40
2019-03-23T08:59:23.670Z,20.97
2019-03-23T09:01:53.210Z,19.10
2019-03-23T09:04:22.785Z,18.03
2019-03-23T09:06:52.313Z,18.03
2019-03-23T09:09:21.781Z,17.23
2019-03-23T09:11:51.247Z,17.97
2019-03-23T09:14:20.733Z,17.20
2019-03-23T09:16:51.838Z,17.97
2019-03-23T09:19:21.706Z,18.17
2019-03-23T09:21:51.190Z,17.60
2019-03-23T09:24:21.830Z,17.47
2019-03-23T09:26:51.656Z,18.40
2019-03-23T09:29:21.157Z,18.10
2019-03-23T09:31:50.959Z,18.70
2019-03-23T09:34:20.479Z,18.40
2019-03-23T09:36:50.409Z,19.20
2019-03-23T09:39:19.829Z,19.70
2019-03-23T09:41:49.301Z,18.77
2019-03-23T09:44:18.844Z,17.73
2019-03-23T09:46:48.246Z,18.67
2019-03-23T09:49:17.777Z,18.53
2019-03-23T09:51:47.204Z,19.73
2019-03-23T09:54:17.127Z,18.67
2019-03-23T09:56:46.628Z,19.00
2019-03-23T09:59:16.034Z,18.47
2019-03-23T10:01:45.858Z,18.10
2019-03-23T10:04:15.325Z,17.70
2019-03-23T10:06:44.801Z,18.80
2019-03-23T10:09:14.271Z,19.47
2019-03-23T10:11:43.951Z,17.30
2019-03-23T10:14:13.437Z,18.53
2019-03-23T10:16:42.921Z,18.53
2019-03-23T10:19:12.403Z,19.47
2019-03-23T10:21:41.881Z,18.83
2019-03-23T10:24:11.273Z,18.60
2019-03-23T10:26:40.729Z,18.93
2019-03-23T10:29:10.165Z,19.50
2019-03-23T10:31:39.656Z,18.60
2019-03-23T10:34:09.127Z,19.37
2019-03-23T10:36:38.533Z,20.53
2019-03-23T10:39:08.079Z,20.97
2019-03-23T10:41:37.624Z,23.47
2019-03-23T10:44:07.094Z,21.03
2019-03-23T10:46:36.553Z,22.27
2019-03-23T10:49:06.125Z,21.07
2019-03-23T10:51:35.682Z,22.57
2019-03-23T10:54:05.272Z,21.43
2019-03-23T10:56:34.762Z,21.67
2019-03-23T10:59:04.260Z,24.37
2019-03-23T11:01:33.818Z,23.80
2019-03-23T11:04:03.318Z,22.10
2019-03-23T11:06:33.381Z,27.80
2019-03-23T11:09:02.904Z,26.07
2019-03-23T11:11:32.381Z,27.10
2019-03-23T11:14:01.798Z,27.20
2019-03-23T11:16:31.276Z,24.73
2019-03-23T11:19:00.744Z,26.90
2019-03-23T11:21:30.265Z,27.77
2019-03-23T11:23:59.698Z,25.33
2019-03-23T11:26:29.178Z,26.20
2019-03-23T11:28:58.673Z,25.43
2019-03-23T11:31:28.225Z,27.87
2019-03-23T11:33:57.627Z,24.80
2019-03-23T11:36:27.114Z,26.53
2019-03-23T11:38:56.630Z,25.60
2019-03-23T11:41:26.022Z,28.50
2019-03-23T11:43:55.533Z,24.47
2019-03-23T11:46:25.331Z,27.20
2019-03-23T11:48:54.801Z,29.43
2019-03-23T11:51:24.649Z,25.73
2019-03-23T11:53:54.049Z,25.20
2019-03-23T11:56:23.591Z,26.93
2019-03-23T11:58:54.102Z,23.90
2019-03-23T12:01:23.728Z,24.80
2019-03-23T12:03:53.266Z,27.37
2019-03-23T12:06:22.949Z,24.17
2019-03-23T12:08:52.494Z,25.33
2019-03-23T12:11:21.970Z,24.07
2019-03-23T12:13:51.386Z,23.40
2019-03-23T12:16:21.244Z,25.07
2019-03-23T12:18:50.713Z,26.20
2019-03-23T12:21:20.220Z,24.60
2019-03-23T12:23:49.774Z,25.80
2019-03-23T12:26:24.989Z,25.87
2019-03-23T12:28:54.378Z,25.33
2019-03-23T12:31:23.971Z,27.30
2019-03-23T12:33:53.404Z,25.80
2019-03-23T12:36:22.954Z,25.87
2019-03-23T12:38:52.484Z,28.50
2019-03-23T12:41:23.330Z,25.10
2019-03-23T12:43:53.089Z,24.47
2019-03-23T12:46:22.632Z,26.70
2019-03-23T12:48:52.115Z,27.47
2019-03-23T12:51:21.606Z,26.50
2019-03-23T12:53:51.134Z,26.97
2019-03-23T12:56:20.706Z,26.40
2019-03-23T12:58:50.189Z,23.83
2019-03-23T13:01:19.733Z,28.67
2019-03-23T13:03:49.153Z,27.27
2019-03-23T13:06:18.702Z,25.53
2019-03-23T13:08:48.171Z,27.20
2019-03-23T13:11:23.243Z,26.40
2019-03-23T13:13:48.759Z,27.13
2019-03-23T13:16:18.534Z,27.30
2019-03-23T13:18:48.014Z,28.50
2019-03-23T13:21:17.477Z,26.10
2019-03-23T13:23:47.006Z,27.67
2019-03-23T13:26:16.478Z,25.23
2019-03-23T13:28:46.280Z,26.33
2019-03-23T13:31:15.807Z,25.70
2019-03-23T13:33:45.714Z,27.30
2019-03-23T13:36:15.144Z,24.50
2019-03-23T13:38:44.797Z,25.80
2019-03-23T13:41:14.321Z,23.30
2019-03-23T13:43:43.781Z,25.77
2019-03-23T13:46:13.426Z,25.90
2019-03-23T13:48:42.968Z,25.37
2019-03-23T13:51:12.438Z,24.73
2019-03-23T13:53:41.973Z,24.33
2019-03-23T13:56:11.549Z,23.17
2019-03-23T13:58:40.941Z,25.47
2019-03-23T14:01:10.467Z,26.80
2019-03-23T14:03:40.360Z,24.13
2019-03-23T14:06:09.905Z,25.30
2019-03-23T14:08:39.672Z,23.80
2019-03-23T14:11:09.113Z,22.20
2019-03-23T14:13:38.523Z,23.50
2019-03-23T14:16:08.049Z,24.27
2019-03-23T14:18:37.870Z,24.50
2019-03-23T14:21:07.330Z,24.43
2019-03-23T14:23:36.809Z,23.97
2019-03-23T14:26:06.379Z,23.80
2019-03-23T14:28:35.757Z,23.13
2019-03-23T14:31:05.246Z,21.07
2019-03-23T14:33:34.804Z,24.70
2019-03-23T14:36:04.353Z,22.73
2019-03-23T14:38:34.141Z,23.73
2019-03-23T14:41:03.947Z,23.90
2019-03-23T14:43:33.660Z,24.70
2019-03-23T14:46:03.054Z,22.60
2019-03-23T14:48:32.480Z,22.47
2019-03-23T14:51:02.015Z,22.30
2019-03-23T14:53:31.779Z,22.97
2019-03-23T14:56:01.483Z,24.57
2019-03-23T14:58:31.005Z,24.63
2019-03-23T15:01:00.457Z,23.90
2019-03-23T15:03:30.017Z,24.77
2019-03-23T15:05:59.414Z,20.77
2019-03-23T15:08:28.885Z,23.23
2019-03-23T15:10:59.455Z,21.57
2019-03-23T15:13:28.992Z,21.40
2019-03-23T15:15:58.473Z,23.67
2019-03-23T15:18:28.013Z,25.30
2019-03-23T15:20:57.474Z,23.60
2019-03-23T15:23:27.013Z,25.90
2019-03-23T15:25:56.607Z,22.13
2019-03-23T15:28:26.005Z,24.90
2019-03-23T15:30:55.498Z,20.80
2019-03-23T15:33:25.045Z,23.93
2019-03-23T15:35:54.488Z,24.10
2019-03-23T15:38:23.953Z,23.27
2019-03-23T15:40:53.514Z,24.60
2019-03-23T15:43:23.054Z,21.47
2019-03-23T15:45:52.593Z,23.43
2019-03-23T15:48:22.191Z,23.67
2019-03-23T15:50:51.720Z,23.30
2019-03-23T15:53:21.248Z,23.93
2019-03-23T15:55:50.663Z,21.30
2019-03-23T15:58:20.126Z,22.27
2019-03-23T16:00:49.663Z,19.90
2019-03-23T16:03:19.155Z,20.63
2019-03-23T16:05:49.041Z,21.13
2019-03-23T16:08:18.441Z,19.30
2019-03-23T16:10:47.858Z,20.50
2019-03-23T16:13:17.326Z,22.10
2019-03-23T16:15:46.794Z,21.63
2019-03-23T16:18:16.354Z,19.67
2019-03-23T16:20:45.825Z,19.30
2019-03-23T16:23:15.229Z,20.33
2019-03-23T16:25:44.976Z,19.77
2019-03-23T16:28:14.457Z,18.57
2019-03-23T16:30:44.007Z,18.00
2019-03-23T16:33:13.514Z,18.37
2019-03-23T16:35:43.074Z,18.43
2019-03-23T16:38:12.614Z,19.40
2019-03-23T16:40:42.313Z,19.30
2019-03-23T16:43:11.854Z,18.60
2019-03-23T16:45:41.395Z,16.73
2019-03-23T16:48:10.877Z,11.70
2019-03-23T16:50:40.333Z,9.70
2019-03-23T16:53:10.034Z,8.73
2019-03-23T16:55:39.439Z,11.37
2019-03-23T16:58:16.096Z,11.70
2019-03-23T17:00:40.262Z,12.00
2019-03-23T17:03:09.917Z,13.90
2019-03-23T17:05:39.454Z,14.70
2019-03-23T17:08:08.985Z,16.90
2019-03-23T17:10:38.545Z,10.30
2019-03-23T17:13:08.014Z,8.40
2019-03-23T17:15:37.474Z,8.30
2019-03-23T17:18:07.102Z,8.73
2019-03-23T17:20:36.657Z,8.70
2019-03-23T17:23:06.122Z,7.60
2019-03-23T17:25:37.727Z,7.40
2019-03-23T17:28:07.422Z,7.50
2019-03-23T17:30:38.518Z,7.20
2019-03-23T17:33:08.981Z,7.77
2019-03-23T17:35:38.677Z,7.80
2019-03-23T17:38:08.199Z,6.87
2019-03-23T17:40:37.689Z,8.00
2019-03-23T17:43:07.230Z,7.40
2019-03-23T17:45:37.010Z,7.80
2019-03-23T17:48:06.548Z,8.10
2019-03-23T17:50:36.005Z,7.60
2019-03-23T17:53:05.575Z,7.00
2019-03-23T17:55:35.090Z,8.33
2019-03-23T17:58:04.634Z,7.50
2019-03-23T18:00:34.230Z,7.80
2019-03-23T18:03:03.909Z,7.40
2019-03-23T18:05:33.762Z,8.10
2019-03-23T18:08:03.304Z,8.73
2019-03-23T18:10:33.174Z,9.53
2019-03-23T18:13:02.638Z,9.83
2019-03-23T18:15:32.490Z,9.63
2019-03-23T18:18:01.973Z,14.13
2019-03-23T18:20:31.682Z,8.10
2019-03-23T18:23:01.064Z,9.90
2019-03-23T18:25:30.626Z,11.50
2019-03-23T18:28:00.200Z,10.07
2019-03-23T18:30:45.522Z,11.03
2019-03-23T18:33:15.070Z,13.37
2019-03-23T18:35:47.510Z,11.07
2019-03-23T18:38:17.181Z,19.50
2019-03-23T18:40:47.101Z,61.80
2019-03-23T18:43:26.753Z,19.07
2019-03-23T18:45:48.734Z,24.80
2019-03-23T18:48:18.974Z,13.83
2019-03-23T18:50:48.622Z,15.20
2019-03-23T18:53:18.115Z,12.80
2019-03-23T18:55:47.654Z,13.30
2019-03-23T18:58:17.110Z,13.70
2019-03-23T19:00:46.746Z,14.17
2019-03-23T19:03:16.205Z,13.87
2019-03-23T19:05:45.861Z,21.20
2019-03-23T19:08:15.445Z,17.13
2019-03-23T19:10:45.122Z,17.03
2019-03-23T19:13:14.645Z,15.90
2019-03-23T19:15:44.486Z,15.90
2019-03-23T19:18:13.988Z,18.07
2019-03-23T19:20:43.634Z,14.67
2019-03-23T19:23:13.117Z,16.83
2019-03-23T19:25:42.665Z,15.57
2019-03-23T19:28:12.634Z,18.70
2019-03-23T19:30:42.262Z,16.40
2019-03-23T19:33:12.283Z,18.73
2019-03-23T19:35:41.890Z,16.47
2019-03-23T19:38:11.545Z,16.97
2019-03-23T19:40:41.109Z,17.00
2019-03-23T19:43:10.871Z,19.50
2019-03-23T19:45:40.419Z,22.37
2019-03-23T19:48:09.882Z,17.07
2019-03-23T19:50:39.354Z,18.13
2019-03-23T19:53:09.284Z,21.43
2019-03-23T19:55:38.851Z,17.23
2019-03-23T19:58:08.381Z,15.87
2019-03-23T20:00:38.077Z,15.70
2019-03-23T20:03:08.061Z,16.13
2019-03-23T20:05:37.539Z,15.97
2019-03-23T20:08:07.066Z,18.73
2019-03-23T20:10:36.939Z,16.10
2019-03-23T20:13:07.283Z,18.83
2019-03-23T20:15:36.777Z,17.60
2019-03-23T20:18:06.915Z,15.37
2019-03-23T20:20:36.732Z,16.73
2019-03-23T20:23:06.310Z,21.00
2019-03-23T20:25:35.837Z,26.07
2019-03-23T20:28:05.730Z,22.60
2019-03-23T20:30:37.065Z,45.53
2019-03-23T20:33:06.786Z,47.30
2019-03-23T20:35:36.285Z,40.50
2019-03-23T20:38:05.916Z,22.60
2019-03-23T20:40:35.494Z,28.63
2019-03-23T20:43:04.961Z,21.80
2019-03-23T20:45:34.533Z,28.50
2019-03-23T20:48:04.099Z,27.63
2019-03-23T20:50:33.741Z,24.60
2019-03-23T20:53:03.730Z,22.70
2019-03-23T20:55:33.194Z,22.10
2019-03-23T20:58:03.394Z,20.60
2019-03-23T21:00:33.314Z,22.13
2019-03-23T21:03:03.125Z,20.70
2019-03-23T21:05:34.098Z,21.10
2019-03-23T21:08:03.814Z,25.60
2019-03-23T21:10:33.287Z,22.60
2019-03-23T21:13:02.751Z,19.70
2019-03-23T21:15:32.217Z,22.43
2019-03-23T21:18:01.681Z,21.20
2019-03-23T21:20:31.235Z,22.20
2019-03-23T21:23:00.758Z,19.80
2019-03-23T21:25:30.297Z,24.33
2019-03-23T21:28:00.008Z,36.00
2019-03-23T21:30:29.650Z,22.20
2019-03-23T21:32:59.232Z,25.77
2019-03-23T21:35:29.034Z,22.33
2019-03-23T21:37:58.664Z,23.77
2019-03-23T21:40:28.173Z,23.17
2019-03-23T21:42:57.698Z,21.53
2019-03-23T21:45:27.395Z,20.10
2019-03-23T21:47:56.761Z,22.73
2019-03-23T21:50:26.493Z,20.20
2019-03-23T21:52:56.213Z,21.73
2019-03-23T21:55:25.606Z,23.33
2019-03-23T21:57:54.998Z,21.67
2019-03-23T22:00:32.202Z,21.00
2019-03-23T22:03:02.124Z,19.67
2019-03-23T22:05:31.702Z,19.53
2019-03-23T22:08:01.261Z,19.90
2019-03-23T22:10:30.847Z,21.60
2019-03-23T22:13:00.390Z,19.87
2019-03-23T22:15:32.362Z,19.50
2019-03-23T22:18:01.912Z,19.77
2019-03-23T22:20:31.450Z,17.53
2019-03-23T22:23:01.236Z,20.20
2019-03-23T22:25:31.186Z,19.53
2019-03-23T22:28:00.715Z,18.27
2019-03-23T22:30:30.435Z,19.60
2019-03-23T22:32:59.973Z,20.57
2019-03-23T22:35:29.429Z,19.50
2019-03-23T22:37:58.847Z,20.23
2019-03-23T22:40:28.421Z,20.10
2019-03-23T22:42:57.969Z,18.50
2019-03-23T22:45:27.560Z,21.73
2019-03-23T22:47:57.189Z,18.73
2019-03-23T22:50:26.607Z,22.50
2019-03-23T22:52:56.017Z,20.07
2019-03-23T22:55:25.486Z,21.60
2019-03-23T22:57:55.011Z,20.77
2019-03-23T23:00:44.316Z,21.60
2019-03-23T23:03:14.248Z,20.57
2019-03-23T23:05:43.788Z,18.27
2019-03-23T23:08:13.343Z,17.53
2019-03-23T23:10:43.465Z,17.97
2019-03-23T23:13:13.017Z,20.07
2019-03-23T23:15:42.618Z,18.70
2019-03-23T23:18:12.177Z,19.17
2019-03-23T23:20:41.632Z,17.57
2019-03-23T23:23:11.149Z,18.43
2019-03-23T23:25:40.537Z,19.03
2019-03-23T23:28:09.986Z,16.40
2019-03-23T23:30:39.392Z,17.37
2019-03-23T23:33:08.854Z,16.87
2019-03-23T23:35:38.377Z,16.30
2019-03-23T23:38:07.922Z,15.47
2019-03-23T23:40:37.542Z,15.93
2019-03-23T23:43:07.074Z,15.67
2019-03-23T23:45:36.646Z,16.50
2019-03-23T23:48:06.103Z,15.83
2019-03-23T23:50:35.857Z,15.57
2019-03-23T23:53:05.509Z,15.83
2019-03-23T23:55:35.389Z,15.10
2019-03-23T23:58:04.917Z,15.03
